createdAt,value
2022-08-08T00:00:02.783Z,1009.6
2022-08-08T00:01:39.126Z,1009.6
2022-08-08T00:03:15.449Z,1009.6
2022-08-08T00:04:51.782Z,1009.6
2022-08-08T00:06:28.104Z,1009.6
2022-08-08T00:08:04.444Z,1009.6
2022-08-08T00:09:40.770Z,1009.6
2022-08-08T00:11:17.102Z,1009.6
2022-08-08T00:12:53.433Z,1009.6
2022-08-08T00:14:29.759Z,1009.6
2022-08-08T00:16:06.096Z,1009.6
2022-08-08T00:17:42.416Z,1009.6
2022-08-08T00:19:17.775Z,1009.6
2022-08-08T00:20:54.101Z,1009.6
2022-08-08T00:22:30.434Z,1009.6
2022-08-08T00:24:06.768Z,1009.6
2022-08-08T00:25:43.090Z,1009.5
2022-08-08T00:27:19.422Z,1009.5
2022-08-08T00:28:55.751Z,1009.5
2022-08-08T00:30:32.080Z,1009.6
2022-08-08T00:32:08.407Z,1009.5
2022-08-08T00:33:44.747Z,1009.6
2022-08-08T00:35:21.086Z,1009.6
2022-08-08T00:36:57.411Z,1009.6
2022-08-08T00:38:33.740Z,1009.6
2022-08-08T00:40:09.079Z,1009.6
2022-08-08T00:41:45.426Z,1009.6
2022-08-08T00:43:21.745Z,1009.6
2022-08-08T00:44:58.078Z,1009.6
2022-08-08T00:46:34.406Z,1009.5
2022-08-08T00:48:10.740Z,1009.5
2022-08-08T00:49:47.076Z,1009.5
2022-08-08T00:51:23.401Z,1009.6
2022-08-08T00:52:59.732Z,1009.5
2022-08-08T00:54:36.073Z,1009.5
2022-08-08T00:56:12.398Z,1009.5
2022-08-08T00:57:48.727Z,1009.5
2022-08-08T00:59:25.054Z,1009.5
2022-08-08T01:01:00.402Z,1009.5
2022-08-08T01:02:36.730Z,1009.5
2022-08-08T01:04:13.059Z,1009.5
2022-08-08T01:05:49.390Z,1009.5
2022-08-08T01:07:25.727Z,1009.5
2022-08-08T01:09:02.093Z,1009.6
2022-08-08T01:10:38.383Z,1009.5
2022-08-08T01:12:14.713Z,1009.6
2022-08-08T01:13:51.046Z,1009.6
2022-08-08T01:15:27.380Z,1009.6
2022-08-08T01:17:03.715Z,1009.6
2022-08-08T01:18:40.046Z,1009.7
2022-08-08T01:20:16.367Z,1009.6
2022-08-08T01:21:52.706Z,1009.6
2022-08-08T01:23:28.064Z,1009.6
2022-08-08T01:25:04.383Z,1009.6
2022-08-08T01:26:40.714Z,1009.6
2022-08-08T01:28:17.043Z,1009.6
2022-08-08T01:29:53.380Z,1009.6
2022-08-08T01:31:29.727Z,1009.6
2022-08-08T01:33:06.040Z,1009.7
2022-08-08T01:34:42.371Z,1009.6
2022-08-08T01:36:18.704Z,1009.6
2022-08-08T01:37:55.045Z,1009.6
2022-08-08T01:39:31.363Z,1009.6
2022-08-08T01:41:07.694Z,1009.6
2022-08-08T01:42:44.023Z,1009.6
2022-08-08T01:44:19.385Z,1009.6
2022-08-08T01:45:55.708Z,1009.6
2022-08-08T01:47:32.050Z,1009.6
2022-08-08T01:49:08.356Z,1009.6
2022-08-08T01:50:44.690Z,1009.6
2022-08-08T01:52:21.032Z,1009.6
2022-08-08T01:53:57.355Z,1009.6
2022-08-08T01:55:33.681Z,1009.6
2022-08-08T01:57:10.021Z,1009.6
2022-08-08T01:58:46.353Z,1009.6
2022-08-08T02:00:22.682Z,1009.7
2022-08-08T02:01:59.009Z,1009.6
2022-08-08T02:03:35.340Z,1009.7
2022-08-08T02:05:10.689Z,1009.7
2022-08-08T02:06:47.018Z,1009.7
2022-08-08T02:08:23.354Z,1009.7
2022-08-08T02:09:59.685Z,1009.7
2022-08-08T02:11:36.009Z,1009.7
2022-08-08T02:13:12.345Z,1009.7
2022-08-08T02:14:48.678Z,1009.7
2022-08-08T02:16:25.008Z,1009.7
2022-08-08T02:18:01.337Z,1009.7
2022-08-08T02:19:37.661Z,1009.7
2022-08-08T02:21:13.995Z,1009.7
2022-08-08T02:22:50.325Z,1009.7
2022-08-08T02:24:26.655Z,1009.7
2022-08-08T02:26:02.006Z,1009.6
2022-08-08T02:27:38.331Z,1009.7
2022-08-08T02:29:14.680Z,1009.6
2022-08-08T02:30:51.000Z,1009.6
2022-08-08T02:32:27.335Z,1009.6
2022-08-08T02:34:03.656Z,1009.6
2022-08-08T02:35:39.998Z,1009.6
2022-08-08T02:38:52.651Z,1009.6
2022-08-08T02:40:28.985Z,1009.6
2022-08-08T02:42:05.314Z,1009.5
2022-08-08T02:43:41.642Z,1009.5
2022-08-08T02:45:17.980Z,1009.6
2022-08-08T02:46:53.326Z,1009.6
2022-08-08T02:48:29.667Z,1009.6
2022-08-08T02:50:05.990Z,1009.6
2022-08-08T02:51:42.316Z,1009.6
2022-08-08T02:53:18.644Z,1009.7
2022-08-08T02:54:54.970Z,1009.7
2022-08-08T02:56:31.312Z,1009.7
2022-08-08T02:58:07.643Z,1009.6
2022-08-08T02:59:43.971Z,1009.7
2022-08-08T03:01:20.297Z,1009.6
2022-08-08T03:02:56.627Z,1009.6
2022-08-08T03:04:32.968Z,1009.6
2022-08-08T03:06:09.299Z,1009.6
2022-08-08T03:07:45.625Z,1009.6
2022-08-08T03:09:20.982Z,1009.6
2022-08-08T03:10:57.304Z,1009.6
2022-08-08T03:12:33.629Z,1009.6
2022-08-08T03:14:09.961Z,1009.7
2022-08-08T03:15:46.303Z,1009.7
2022-08-08T03:17:22.632Z,1009.7
2022-08-08T03:18:58.952Z,1009.7
2022-08-08T03:20:35.282Z,1009.7
2022-08-08T03:22:11.612Z,1009.7
2022-08-08T03:23:47.954Z,1009.7
2022-08-08T03:25:24.277Z,1009.7
2022-08-08T03:27:00.613Z,1009.7
2022-08-08T03:28:36.940Z,1009.8
2022-08-08T03:30:12.289Z,1009.8
2022-08-08T03:31:48.618Z,1009.8
2022-08-08T03:33:24.947Z,1009.8
2022-08-08T03:35:01.275Z,1009.8
2022-08-08T03:36:37.612Z,1009.8
2022-08-08T03:38:13.942Z,1009.8
2022-08-08T03:39:50.270Z,1009.8
2022-08-08T03:41:26.603Z,1009.8
2022-08-08T03:43:02.930Z,1009.9
2022-08-08T03:44:39.259Z,1009.9
2022-08-08T03:46:15.598Z,1009.9
2022-08-08T03:47:51.930Z,1009.8
2022-08-08T03:49:28.260Z,1009.9
2022-08-08T03:51:03.604Z,1009.9
2022-08-08T03:52:39.933Z,1009.9
2022-08-08T03:54:16.261Z,1009.9
2022-08-08T03:55:52.591Z,1009.9
2022-08-08T03:57:28.939Z,1010
2022-08-08T03:59:05.252Z,1010
2022-08-08T04:00:41.588Z,1010.1
2022-08-08T04:02:17.914Z,1010.1
2022-08-08T04:03:54.251Z,1010.1
2022-08-08T04:05:30.582Z,1010.1
2022-08-08T04:07:06.910Z,1010.1
2022-08-08T04:08:43.242Z,1010.1
2022-08-08T04:10:19.565Z,1010.1
2022-08-08T04:11:54.918Z,1010.1
2022-08-08T04:13:31.247Z,1010.1
2022-08-08T04:15:07.577Z,1010.1
2022-08-08T04:16:43.913Z,1010.1
2022-08-08T04:18:20.243Z,1010.2
2022-08-08T04:19:56.571Z,1010.2
2022-08-08T04:21:32.914Z,1010.2
2022-08-08T04:23:09.228Z,1010.2
2022-08-08T04:24:45.567Z,1010.2
2022-08-08T04:26:21.892Z,1010.2
2022-08-08T04:27:58.226Z,1010.2
2022-08-08T04:29:34.561Z,1010.2
2022-08-08T04:31:10.884Z,1010.2
2022-08-08T04:32:46.238Z,1010.2
2022-08-08T04:34:22.558Z,1010.2
2022-08-08T04:35:58.917Z,1010.2
2022-08-08T04:37:35.226Z,1010.2
2022-08-08T04:39:11.564Z,1010.3
2022-08-08T04:40:47.892Z,1010.3
2022-08-08T04:42:24.222Z,1010.2
2022-08-08T04:44:00.572Z,1010.3
2022-08-08T04:45:36.878Z,1010.3
2022-08-08T04:47:13.214Z,1010.3
2022-08-08T04:48:49.545Z,1010.3
2022-08-08T04:50:25.874Z,1010.3
2022-08-08T04:52:02.216Z,1010.4
2022-08-08T04:53:38.538Z,1010.4
2022-08-08T04:55:13.889Z,1010.3
2022-08-08T04:56:50.228Z,1010.4
2022-08-08T04:58:26.550Z,1010.4
2022-08-08T05:00:02.880Z,1010.4
2022-08-08T05:01:39.233Z,1010.4
2022-08-08T05:03:15.544Z,1010.4
2022-08-08T05:04:51.869Z,1010.4
2022-08-08T05:06:28.205Z,1010.4
2022-08-08T05:08:04.537Z,1010.4
2022-08-08T05:09:40.856Z,1010.4
2022-08-08T05:11:17.195Z,1010.4
2022-08-08T05:12:53.520Z,1010.4
2022-08-08T05:14:29.856Z,1010.4
2022-08-08T05:16:05.199Z,1010.4
2022-08-08T05:17:41.532Z,1010.4
2022-08-08T05:19:17.875Z,1010.5
2022-08-08T05:20:54.201Z,1010.4
2022-08-08T05:22:30.534Z,1010.4
2022-08-08T05:24:06.860Z,1010.5
2022-08-08T05:25:43.193Z,1010.4
2022-08-08T05:27:19.516Z,1010.4
2022-08-08T05:28:55.845Z,1010.4
2022-08-08T05:30:32.191Z,1010.4
2022-08-08T05:32:08.510Z,1010.4
2022-08-08T05:33:44.840Z,1010.4
2022-08-08T05:35:21.171Z,1010.4
2022-08-08T05:36:56.523Z,1010.4
2022-08-08T05:38:32.854Z,1010.4
2022-08-08T05:40:09.182Z,1010.4
2022-08-08T05:41:45.518Z,1010.4
2022-08-08T05:43:21.845Z,1010.4
2022-08-08T05:44:58.177Z,1010.4
2022-08-08T05:46:34.502Z,1010.4
2022-08-08T05:48:10.832Z,1010.4
2022-08-08T05:49:47.161Z,1010.4
2022-08-08T05:51:23.488Z,1010.4
2022-08-08T05:52:59.833Z,1010.4
2022-08-08T05:54:36.156Z,1010.4
2022-08-08T05:56:11.525Z,1010.4
2022-08-08T05:57:46.864Z,1010.4
2022-08-08T05:59:22.221Z,1010.4
2022-08-08T06:00:58.549Z,1010.5
2022-08-08T06:02:33.943Z,1010.4
2022-08-08T06:04:10.240Z,1010.5
2022-08-08T06:05:46.559Z,1010.5
2022-08-08T06:07:22.901Z,1010.5
2022-08-08T06:08:59.229Z,1010.5
2022-08-08T06:10:35.550Z,1010.5
2022-08-08T06:12:11.890Z,1010.6
2022-08-08T06:13:48.214Z,1010.6
2022-08-08T06:15:24.548Z,1010.6
2022-08-08T06:17:00.879Z,1010.6
2022-08-08T06:18:37.211Z,1010.7
2022-08-08T06:20:13.534Z,1010.6
2022-08-08T06:21:49.876Z,1010.6
2022-08-08T06:23:25.224Z,1010.7
2022-08-08T06:25:01.555Z,1010.7
2022-08-08T06:26:37.881Z,1010.7
2022-08-08T06:28:14.216Z,1010.7
2022-08-08T06:29:50.552Z,1010.7
2022-08-08T06:31:26.870Z,1010.8
2022-08-08T06:33:03.206Z,1010.8
2022-08-08T06:34:39.536Z,1010.7
2022-08-08T06:36:15.901Z,1010.7
2022-08-08T06:37:52.197Z,1010.7
2022-08-08T06:39:28.521Z,1010.8
2022-08-08T06:41:04.859Z,1010.8
2022-08-08T06:42:41.201Z,1010.8
2022-08-08T06:44:16.532Z,1010.8
2022-08-08T06:45:51.882Z,1010.7
2022-08-08T06:47:28.221Z,1010.8
2022-08-08T06:49:04.557Z,1010.8
2022-08-08T06:50:40.874Z,1010.8
2022-08-08T06:52:17.210Z,1010.8
2022-08-08T06:53:53.537Z,1010.7
2022-08-08T06:55:29.871Z,1010.7
2022-08-08T06:57:06.198Z,1010.7
2022-08-08T06:58:42.552Z,1010.7
2022-08-08T07:00:18.862Z,1010.7
2022-08-08T07:01:55.204Z,1010.7
2022-08-08T07:03:31.532Z,1010.8
2022-08-08T07:05:07.861Z,1010.8
2022-08-08T07:06:43.214Z,1010.8
2022-08-08T07:08:19.535Z,1010.8
2022-08-08T07:09:55.883Z,1010.8
2022-08-08T07:11:32.207Z,1010.8
2022-08-08T07:13:08.523Z,1010.8
2022-08-08T07:14:44.857Z,1010.8
2022-08-08T07:16:21.191Z,1010.8
2022-08-08T07:17:57.513Z,1010.8
2022-08-08T07:19:33.854Z,1010.9
2022-08-08T07:21:10.184Z,1010.8
2022-08-08T07:22:46.552Z,1010.9
2022-08-08T07:24:22.837Z,1010.9
2022-08-08T07:25:59.174Z,1010.9
2022-08-08T07:27:34.521Z,1010.9
2022-08-08T07:29:10.850Z,1010.9
2022-08-08T07:30:47.185Z,1011
2022-08-08T07:32:23.531Z,1011
2022-08-08T07:33:59.846Z,1011
2022-08-08T07:35:36.179Z,1010.9
2022-08-08T07:37:12.537Z,1011
2022-08-08T07:38:48.845Z,1011
2022-08-08T07:40:25.160Z,1011
2022-08-08T07:42:01.495Z,1011
2022-08-08T07:43:37.830Z,1011
2022-08-08T07:45:14.159Z,1011
2022-08-08T07:46:50.490Z,1011
2022-08-08T07:48:25.832Z,1011
2022-08-08T07:50:02.168Z,1011
2022-08-08T07:51:38.494Z,1011
2022-08-08T07:53:14.831Z,1011.1
2022-08-08T07:54:51.156Z,1011.1
2022-08-08T07:56:27.482Z,1011.1
2022-08-08T07:58:03.825Z,1011.1
2022-08-08T07:59:40.143Z,1011.1
2022-08-08T08:01:16.485Z,1011.1
2022-08-08T08:02:52.813Z,1011.1
2022-08-08T08:04:29.147Z,1011.1
2022-08-08T08:06:05.468Z,1011.1
2022-08-08T08:07:41.791Z,1011.1
2022-08-08T08:09:17.149Z,1011.2
2022-08-08T08:10:53.488Z,1011.2
2022-08-08T08:12:29.808Z,1011.1
2022-08-08T08:14:06.144Z,1011.1
2022-08-08T08:15:42.494Z,1011.1
2022-08-08T08:17:18.805Z,1011.1
2022-08-08T08:18:55.141Z,1011.2
2022-08-08T08:20:31.463Z,1011.1
2022-08-08T08:22:07.797Z,1011.1
2022-08-08T08:23:44.128Z,1011.1
2022-08-08T08:25:20.483Z,1011.2
2022-08-08T08:26:56.783Z,1011.2
2022-08-08T08:28:33.126Z,1011.2
2022-08-08T08:30:08.475Z,1011.2
2022-08-08T08:31:44.803Z,1011.2
2022-08-08T08:33:21.133Z,1011.1
2022-08-08T08:34:57.468Z,1011.1
2022-08-08T08:36:33.787Z,1011.1
2022-08-08T08:38:10.122Z,1011.1
2022-08-08T08:39:46.450Z,1011.1
2022-08-08T08:41:22.789Z,1011.1
2022-08-08T08:42:59.195Z,1011.1
2022-08-08T08:44:35.440Z,1011.1
2022-08-08T08:46:11.782Z,1011.1
2022-08-08T08:47:48.122Z,1011
2022-08-08T08:49:24.448Z,1011.1
2022-08-08T08:50:59.788Z,1011.1
2022-08-08T08:52:36.120Z,1011.1
2022-08-08T08:54:12.442Z,1011.1
2022-08-08T08:55:48.792Z,1011.1
2022-08-08T08:57:25.105Z,1011.1
2022-08-08T08:59:01.440Z,1011.1
2022-08-08T09:00:37.770Z,1011.1
2022-08-08T09:02:14.263Z,1011.1
2022-08-08T09:03:50.426Z,1011.1
2022-08-08T09:05:26.756Z,1011.1
2022-08-08T09:07:03.083Z,1011.1
2022-08-08T09:08:39.419Z,1011.1
2022-08-08T09:10:15.754Z,1011.1
2022-08-08T09:11:51.093Z,1011.1
2022-08-08T09:13:27.427Z,1011.1
2022-08-08T09:15:03.761Z,1011.1
2022-08-08T09:16:40.095Z,1011.1
2022-08-08T09:18:16.431Z,1011.1
2022-08-08T09:19:52.746Z,1011.1
2022-08-08T09:21:29.085Z,1011.1
2022-08-08T09:23:05.417Z,1011.1
2022-08-08T09:24:41.739Z,1011.1
2022-08-08T09:26:18.070Z,1011.1
2022-08-08T09:27:54.406Z,1011.1
2022-08-08T09:29:30.735Z,1011
2022-08-08T09:31:07.068Z,1011
2022-08-08T09:32:43.394Z,1011
2022-08-08T09:34:18.753Z,1011
2022-08-08T09:35:55.077Z,1011.1
2022-08-08T09:37:31.416Z,1011.1
2022-08-08T09:39:07.746Z,1011.1
2022-08-08T09:40:44.098Z,1011.1
2022-08-08T09:42:20.413Z,1011
2022-08-08T09:43:56.735Z,1011
2022-08-08T09:45:33.076Z,1011.1
2022-08-08T09:47:09.398Z,1011.1
2022-08-08T09:48:45.944Z,1011.1
2022-08-08T09:50:22.063Z,1011.1
2022-08-08T09:51:58.389Z,1011.1
2022-08-08T09:53:34.746Z,1011.1
2022-08-08T09:55:10.063Z,1011.1
2022-08-08T09:56:46.436Z,1011
2022-08-08T09:58:22.729Z,1011
2022-08-08T09:59:59.061Z,1011
2022-08-08T10:01:35.393Z,1011
2022-08-08T10:03:11.718Z,1011
2022-08-08T10:04:48.064Z,1011
2022-08-08T10:06:24.383Z,1011
2022-08-08T10:08:00.715Z,1011
2022-08-08T10:09:37.057Z,1011
2022-08-08T10:11:13.389Z,1011
2022-08-08T10:12:49.697Z,1011
2022-08-08T10:14:26.041Z,1011
2022-08-08T10:17:37.716Z,1011
2022-08-08T10:19:14.055Z,1010.9
2022-08-08T10:20:50.376Z,1010.9
2022-08-08T10:22:26.717Z,1010.9
2022-08-08T10:24:03.039Z,1010.9
2022-08-08T10:25:39.365Z,1010.9
2022-08-08T10:27:15.723Z,1010.9
2022-08-08T10:28:52.049Z,1010.9
2022-08-08T10:30:28.363Z,1011
2022-08-08T10:32:04.691Z,1011
2022-08-08T10:33:41.014Z,1010.9
2022-08-08T10:36:53.682Z,1010.8
2022-08-08T10:38:29.076Z,1010.9
2022-08-08T10:40:05.356Z,1010.8
2022-08-08T10:41:41.697Z,1010.8
2022-08-08T10:43:18.020Z,1010.8
2022-08-08T10:44:54.399Z,1010.8
2022-08-08T10:46:30.713Z,1010.8
2022-08-08T10:48:07.014Z,1010.8
2022-08-08T10:49:43.341Z,1010.7
2022-08-08T10:51:19.671Z,1010.8
2022-08-08T10:52:56.008Z,1010.8
2022-08-08T10:54:32.339Z,1010.8
2022-08-08T10:56:08.672Z,1010.8
2022-08-08T10:57:44.996Z,1010.8
2022-08-08T10:59:21.328Z,1010.8
2022-08-08T11:00:56.673Z,1010.8
2022-08-08T11:02:32.997Z,1010.9
2022-08-08T11:04:09.359Z,1010.9
2022-08-08T11:05:45.680Z,1010.8
2022-08-08T11:07:22.023Z,1010.8
2022-08-08T11:08:58.346Z,1010.8
2022-08-08T11:10:34.662Z,1010.8
2022-08-08T11:12:10.990Z,1010.8
2022-08-08T11:13:47.333Z,1010.7
2022-08-08T11:15:23.654Z,1010.7
2022-08-08T11:16:59.993Z,1010.7
2022-08-08T11:18:36.317Z,1010.7
2022-08-08T11:20:12.652Z,1010.7
2022-08-08T11:21:48.001Z,1010.6
2022-08-08T11:23:24.326Z,1010.7
2022-08-08T11:25:00.665Z,1010.6
2022-08-08T11:26:37.002Z,1010.7
2022-08-08T11:28:13.319Z,1010.7
2022-08-08T11:29:49.645Z,1010.6
2022-08-08T11:31:25.990Z,1010.7
2022-08-08T11:33:02.309Z,1010.6
2022-08-08T11:34:38.651Z,1010.6
2022-08-08T11:36:14.968Z,1010.6
2022-08-08T11:37:51.321Z,1010.5
2022-08-08T11:39:27.668Z,1010.5
2022-08-08T11:41:03.959Z,1010.5
2022-08-08T11:42:39.306Z,1010.5
2022-08-08T11:44:15.647Z,1010.5
2022-08-08T11:45:51.968Z,1010.5
2022-08-08T11:47:28.300Z,1010.5
2022-08-08T11:49:04.625Z,1010.5
2022-08-08T11:50:40.962Z,1010.5
2022-08-08T11:52:17.287Z,1010.5
2022-08-08T11:53:53.623Z,1010.5
2022-08-08T11:55:29.953Z,1010.5
2022-08-08T11:57:06.280Z,1010.5
2022-08-08T11:58:42.610Z,1010.4
2022-08-08T12:00:18.954Z,1010.4
2022-08-08T12:01:55.273Z,1010.4
2022-08-08T12:03:30.621Z,1010.4
2022-08-08T12:05:06.961Z,1010.4
2022-08-08T12:06:43.298Z,1010.4
2022-08-08T12:08:18.643Z,1010.4
2022-08-08T12:09:54.967Z,1010.4
2022-08-08T12:11:31.299Z,1010.4
2022-08-08T12:13:07.629Z,1010.4
2022-08-08T12:14:43.958Z,1010.4
2022-08-08T12:16:20.287Z,1010.4
2022-08-08T12:17:56.621Z,1010.4
2022-08-08T12:19:32.951Z,1010.4
2022-08-08T12:21:09.280Z,1010.4
2022-08-08T12:22:45.608Z,1010.3
2022-08-08T12:24:21.944Z,1010.4
2022-08-08T12:25:58.279Z,1010.3
2022-08-08T12:27:34.613Z,1010.4
2022-08-08T12:29:10.931Z,1010.4
2022-08-08T12:30:46.307Z,1010.3
2022-08-08T12:32:22.611Z,1010.3
2022-08-08T12:33:58.941Z,1010.3
2022-08-08T12:35:35.309Z,1010.3
2022-08-08T12:37:11.603Z,1010.3
2022-08-08T12:38:47.933Z,1010.3
2022-08-08T12:40:24.255Z,1010.3
2022-08-08T12:42:00.588Z,1010.3
2022-08-08T12:43:36.920Z,1010.3
2022-08-08T12:45:13.256Z,1010.4
2022-08-08T12:46:49.588Z,1010.3
2022-08-08T12:48:25.919Z,1010.3
2022-08-08T12:50:02.239Z,1010.3
2022-08-08T12:51:37.594Z,1010.3
2022-08-08T12:53:13.919Z,1010.3
2022-08-08T12:54:50.249Z,1010.3
2022-08-08T12:56:26.596Z,1010.3
2022-08-08T12:58:02.915Z,1010.3
2022-08-08T12:59:39.252Z,1010.3
2022-08-08T13:01:15.581Z,1010.3
2022-08-08T13:02:51.912Z,1010.3
2022-08-08T13:04:28.240Z,1010.3
2022-08-08T13:06:04.571Z,1010.2
2022-08-08T13:07:40.898Z,1010.2
2022-08-08T13:09:17.234Z,1010.2
2022-08-08T13:10:53.568Z,1010.2
2022-08-08T13:12:29.898Z,1010.2
2022-08-08T13:14:05.243Z,1010.2
2022-08-08T13:15:41.564Z,1010.1
2022-08-08T13:17:17.904Z,1010.2
2022-08-08T13:18:54.246Z,1010.1
2022-08-08T13:20:30.564Z,1010.1
2022-08-08T13:22:06.891Z,1010.1
2022-08-08T13:23:43.223Z,1010.1
2022-08-08T13:25:19.559Z,1010.1
2022-08-08T13:26:55.894Z,1010.1
2022-08-08T13:28:32.220Z,1010.1
2022-08-08T13:30:08.546Z,1010.1
2022-08-08T13:31:44.875Z,1010
2022-08-08T13:33:21.202Z,1010.1
2022-08-08T13:34:56.576Z,1010.1
2022-08-08T13:36:32.893Z,1010.1
2022-08-08T13:38:09.240Z,1010
2022-08-08T13:39:45.550Z,1010.1
2022-08-08T13:41:21.893Z,1010
2022-08-08T13:42:58.213Z,1010
2022-08-08T13:44:34.539Z,1010
2022-08-08T13:46:10.881Z,1010
2022-08-08T13:47:47.207Z,1010
2022-08-08T13:49:23.531Z,1010
2022-08-08T13:50:59.879Z,1010
2022-08-08T13:52:36.203Z,1010
2022-08-08T13:54:12.542Z,1010
2022-08-08T13:55:48.861Z,1010
2022-08-08T13:57:25.185Z,1010
2022-08-08T13:59:01.518Z,1010
2022-08-08T14:00:36.857Z,1010
2022-08-08T14:02:13.192Z,1009.9
2022-08-08T14:03:49.521Z,1010
2022-08-08T14:05:25.879Z,1010
2022-08-08T14:07:02.226Z,1010
2022-08-08T14:08:38.507Z,1010
2022-08-08T14:10:14.846Z,1010
2022-08-08T14:11:51.178Z,1010
2022-08-08T14:13:27.519Z,1010.1
2022-08-08T14:15:03.843Z,1010.1
2022-08-08T14:16:40.179Z,1010.1
2022-08-08T14:18:16.499Z,1010.1
2022-08-08T14:19:52.826Z,1010
2022-08-08T14:21:29.173Z,1010
2022-08-08T14:23:05.492Z,1010
2022-08-08T14:24:40.864Z,1010
2022-08-08T14:26:17.182Z,1010.1
2022-08-08T14:27:53.500Z,1010
2022-08-08T14:29:29.845Z,1010
2022-08-08T14:31:06.158Z,1010
2022-08-08T14:32:42.490Z,1010
2022-08-08T14:34:18.831Z,1010
2022-08-08T14:35:55.171Z,1010
2022-08-08T14:37:31.482Z,1010.1
2022-08-08T14:39:07.808Z,1009.9
2022-08-08T14:40:44.143Z,1010
2022-08-08T14:42:20.479Z,1009.9
2022-08-08T14:43:56.823Z,1010
2022-08-08T14:45:33.147Z,1009.9
2022-08-08T14:47:15.258Z,1010
2022-08-08T14:48:45.802Z,1010
2022-08-08T14:50:22.138Z,1010
2022-08-08T14:51:57.476Z,1010
2022-08-08T14:53:33.812Z,1010
2022-08-08T14:55:10.157Z,1010
2022-08-08T14:56:46.474Z,1010
2022-08-08T14:58:22.803Z,1010
2022-08-08T14:59:59.130Z,1010
2022-08-08T15:01:35.458Z,1010
2022-08-08T15:03:11.798Z,1010
2022-08-08T15:04:48.125Z,1009.9
2022-08-08T15:06:24.459Z,1009.9
2022-08-08T15:08:00.791Z,1009.9
2022-08-08T15:09:37.146Z,1009.9
2022-08-08T15:11:13.445Z,1009.9
2022-08-08T15:12:49.791Z,1009.9
2022-08-08T15:14:26.109Z,1009.9
2022-08-08T15:16:01.459Z,1009.9
2022-08-08T15:17:37.786Z,1009.9
2022-08-08T15:19:14.114Z,1009.9
2022-08-08T15:20:50.452Z,1009.9
2022-08-08T15:22:26.776Z,1009.9
2022-08-08T15:24:03.104Z,1009.9
2022-08-08T15:25:39.439Z,1009.9
2022-08-08T15:27:15.785Z,1009.9
2022-08-08T15:28:52.098Z,1009.9
2022-08-08T15:30:28.442Z,1009.9
2022-08-08T15:32:04.768Z,1009.8
2022-08-08T15:33:41.095Z,1009.9
2022-08-08T15:35:17.441Z,1009.9
2022-08-08T15:36:52.773Z,1009.9
2022-08-08T15:38:29.116Z,1009.9
2022-08-08T15:40:05.433Z,1010
2022-08-08T15:41:41.758Z,1009.9
2022-08-08T15:43:18.104Z,1009.9
2022-08-08T15:44:54.421Z,1009.9
2022-08-08T15:46:30.765Z,1009.9
2022-08-08T15:48:07.078Z,1009.9
2022-08-08T15:49:43.412Z,1009.9
2022-08-08T15:51:19.760Z,1009.9
2022-08-08T15:52:56.082Z,1009.9
2022-08-08T15:54:32.410Z,1009.9
2022-08-08T15:56:08.747Z,1009.9
2022-08-08T15:57:45.244Z,1009.9
2022-08-08T15:59:20.419Z,1009.9
2022-08-08T16:00:56.752Z,1009.8
2022-08-08T16:02:33.075Z,1009.8
2022-08-08T16:04:09.413Z,1009.9
2022-08-08T16:05:45.760Z,1009.8
2022-08-08T16:07:22.076Z,1009.8
2022-08-08T16:08:58.410Z,1009.8
2022-08-08T16:10:34.730Z,1009.8
2022-08-08T16:12:59.992Z,1009.8
2022-08-08T16:13:47.389Z,1009.8
2022-08-08T16:15:23.724Z,1009.8
2022-08-08T16:17:00.063Z,1009.8
2022-08-08T16:18:36.382Z,1009.7
2022-08-08T16:20:11.733Z,1009.8
2022-08-08T16:21:48.064Z,1009.8
2022-08-08T16:23:24.393Z,1009.8
2022-08-08T16:25:00.727Z,1009.8
2022-08-08T16:26:37.056Z,1009.8
2022-08-08T16:28:13.385Z,1009.8
2022-08-08T16:29:49.718Z,1009.8
2022-08-08T16:31:26.043Z,1009.8
2022-08-08T16:33:02.373Z,1009.8
2022-08-08T16:34:38.705Z,1009.8
2022-08-08T16:36:15.046Z,1009.8
2022-08-08T16:37:51.367Z,1009.7
2022-08-08T16:39:27.703Z,1009.7
2022-08-08T16:41:04.029Z,1009.7
2022-08-08T16:42:39.385Z,1009.7
2022-08-08T16:44:15.714Z,1009.7
2022-08-08T16:45:52.046Z,1009.7
2022-08-08T16:47:28.375Z,1009.7
2022-08-08T16:49:04.710Z,1009.7
2022-08-08T16:50:41.033Z,1009.8
2022-08-08T16:52:17.358Z,1009.8
2022-08-08T16:54:56.785Z,1009.7
2022-08-08T16:55:30.029Z,1009.7
2022-08-08T16:57:06.357Z,1009.7
2022-08-08T16:58:42.692Z,1009.7
2022-08-08T17:00:19.033Z,1009.7
2022-08-08T17:01:55.376Z,1009.8
2022-08-08T17:03:30.693Z,1009.7
2022-08-08T17:05:07.027Z,1009.7
2022-08-08T17:06:43.362Z,1009.7
2022-08-08T17:08:19.707Z,1009.8
2022-08-08T17:09:56.019Z,1009.8
2022-08-08T17:11:32.353Z,1009.7
2022-08-08T17:13:08.686Z,1009.7
2022-08-08T17:14:45.011Z,1009.8
2022-08-08T17:16:21.350Z,1009.7
2022-08-08T17:17:57.674Z,1009.7
2022-08-08T17:19:34.004Z,1009.7
2022-08-08T17:21:10.344Z,1009.8
2022-08-08T17:22:46.689Z,1009.8
2022-08-08T17:24:22.999Z,1009.8
2022-08-08T17:25:59.331Z,1009.8
2022-08-08T17:27:35.683Z,1009.8
2022-08-08T17:29:11.030Z,1009.8
2022-08-08T17:30:46.388Z,1009.8
2022-08-08T17:32:22.710Z,1009.9
2022-08-08T17:33:59.025Z,1009.9
2022-08-08T17:35:35.369Z,1010
2022-08-08T17:37:11.684Z,1010
2022-08-08T17:38:48.009Z,1010
2022-08-08T17:40:24.360Z,1010
2022-08-08T17:42:00.680Z,1010
2022-08-08T17:43:37.004Z,1010
2022-08-08T17:45:13.336Z,1010
2022-08-08T17:46:49.664Z,1010.1
2022-08-08T17:48:26.019Z,1010.1
2022-08-08T17:50:02.331Z,1010.1
2022-08-08T17:51:38.665Z,1010.1
2022-08-08T17:53:15.003Z,1010.1
2022-08-08T17:54:50.361Z,1010.1
2022-08-08T17:56:26.692Z,1010.1
2022-08-08T17:58:03.012Z,1010.1
2022-08-08T17:59:39.332Z,1010.1
2022-08-08T18:01:15.661Z,1010.1
2022-08-08T18:02:51.997Z,1010.1
2022-08-08T18:04:28.327Z,1010.1
2022-08-08T18:06:04.655Z,1010.1
2022-08-08T18:07:40.983Z,1010.2
2022-08-08T18:09:17.324Z,1010.2
2022-08-08T18:10:53.676Z,1010.2
2022-08-08T18:12:29.976Z,1010.2
2022-08-08T18:14:06.308Z,1010.2
2022-08-08T18:15:41.668Z,1010.2
2022-08-08T18:17:17.991Z,1010.1
2022-08-08T18:18:54.318Z,1010.1
2022-08-08T18:20:30.653Z,1010.2
2022-08-08T18:22:07.003Z,1010.2
2022-08-08T18:23:43.344Z,1010.2
2022-08-08T18:25:19.636Z,1010.1
2022-08-08T18:26:55.993Z,1010.1
2022-08-08T18:28:32.307Z,1010.2
2022-08-08T18:30:08.629Z,1010.2
2022-08-08T18:31:44.979Z,1010.3
2022-08-08T18:33:21.289Z,1010.2
2022-08-08T18:34:57.645Z,1010.2
2022-08-08T18:36:33.964Z,1010.2
2022-08-08T18:38:10.290Z,1010.2
2022-08-08T18:39:46.619Z,1010.2
2022-08-08T18:41:22.954Z,1010.2
2022-08-08T18:42:58.296Z,1010.2
2022-08-08T18:44:34.631Z,1010.2
2022-08-08T18:46:10.955Z,1010.3
2022-08-08T18:47:47.293Z,1010.3
2022-08-08T18:49:23.626Z,1010.3
2022-08-08T18:50:59.955Z,1010.4
2022-08-08T18:52:36.336Z,1010.4
2022-08-08T18:54:12.610Z,1010.4
2022-08-08T18:55:48.959Z,1010.4
2022-08-08T18:57:25.273Z,1010.4
2022-08-08T18:59:01.629Z,1010.5
2022-08-08T19:00:37.937Z,1010.5
2022-08-08T19:02:14.268Z,1010.6
2022-08-08T19:03:49.617Z,1010.6
2022-08-08T19:05:25.943Z,1010.6
2022-08-08T19:07:02.273Z,1010.7
2022-08-08T19:08:38.618Z,1010.7
2022-08-08T19:10:14.936Z,1010.8
2022-08-08T19:11:51.282Z,1010.8
2022-08-08T19:13:27.627Z,1010.8
2022-08-08T19:15:03.935Z,1010.8
2022-08-08T19:16:40.292Z,1010.9
2022-08-08T19:18:16.582Z,1010.9
2022-08-08T19:19:52.918Z,1011
2022-08-08T19:21:29.242Z,1011
2022-08-08T19:23:05.588Z,1011
2022-08-08T19:24:41.914Z,1011
2022-08-08T19:26:17.944Z,1011.1
2022-08-08T19:27:53.598Z,1011
2022-08-08T19:29:29.915Z,1011.1
2022-08-08T19:31:05.279Z,1011.1
2022-08-08T19:32:40.617Z,1011
2022-08-08T19:34:16.954Z,1011.1
2022-08-08T19:35:53.289Z,1011.1
2022-08-08T19:37:29.610Z,1011
2022-08-08T19:39:05.946Z,1011.1
2022-08-08T19:40:42.273Z,1011.1
2022-08-08T19:42:18.630Z,1011.1
2022-08-08T19:43:54.938Z,1011.2
2022-08-08T19:45:31.272Z,1011.1
2022-08-08T19:47:06.628Z,1011.2
2022-08-08T19:48:42.961Z,1011.2
2022-08-08T19:50:18.303Z,1011.2
2022-08-08T19:51:54.646Z,1011.2
2022-08-08T19:53:30.962Z,1011.2
2022-08-08T19:55:07.312Z,1011.2
2022-08-08T19:56:43.630Z,1011.3
2022-08-08T19:58:19.975Z,1011.2
2022-08-08T19:59:56.293Z,1011.2
2022-08-08T20:01:32.636Z,1011.2
2022-08-08T20:03:08.963Z,1011.3
2022-08-08T20:04:45.302Z,1011.3
2022-08-08T20:06:21.619Z,1011.3
2022-08-08T20:07:57.947Z,1011.3
2022-08-08T20:09:34.275Z,1011.3
2022-08-08T20:11:09.634Z,1011.3
2022-08-08T20:12:45.956Z,1011.3
2022-08-08T20:14:22.279Z,1011.3